createdAt,value
2023-05-20T00:02:09.805Z,21.93
2023-05-20T00:04:36.652Z,24.27
2023-05-20T00:07:04.057Z,22.70
2023-05-20T00:09:30.783Z,20.77
2023-05-20T00:11:57.614Z,22.67
2023-05-20T00:14:24.493Z,26.97
2023-05-20T00:16:51.351Z,21.03
2023-05-20T00:19:18.258Z,40.50
2023-05-20T00:21:44.982Z,24.27
2023-05-20T00:24:11.713Z,24.07
2023-05-20T00:26:38.624Z,24.80
2023-05-20T00:29:05.374Z,21.63
2023-05-20T00:31:32.235Z,22.87
2023-05-20T00:33:59.049Z,27.83
2023-05-20T00:36:25.905Z,24.33
2023-05-20T00:38:52.695Z,23.47
2023-05-20T00:41:19.421Z,27.80
2023-05-20T00:43:46.407Z,24.47
2023-05-20T00:46:13.489Z,25.23
2023-05-20T00:48:42.885Z,22.97
2023-05-20T00:51:11.739Z,25.27
2023-05-20T00:53:39.256Z,25.60
2023-05-20T00:56:07.224Z,25.20
2023-05-20T00:58:36.694Z,24.23
2023-05-20T01:01:03.680Z,23.53
2023-05-20T01:03:30.673Z,23.90
2023-05-20T01:05:57.487Z,25.67
2023-05-20T01:08:25.968Z,24.83
2023-05-20T01:11:01.189Z,23.83
2023-05-20T01:13:34.300Z,26.07
2023-05-20T01:16:03.324Z,25.37
2023-05-20T01:18:32.444Z,24.67
2023-05-20T01:21:02.543Z,25.40
2023-05-20T01:23:42.646Z,23.70
2023-05-20T01:26:13.836Z,24.90
2023-05-20T01:28:43.541Z,25.13
2023-05-20T01:31:32.026Z,26.80
2023-05-20T01:33:59.549Z,26.43
2023-05-20T01:36:28.492Z,30.53
2023-05-20T01:38:56.214Z,32.30
2023-05-20T01:41:25.105Z,26.67
2023-05-20T01:43:52.085Z,28.97
2023-05-20T01:46:18.851Z,30.53
2023-05-20T01:48:45.986Z,26.37
2023-05-20T01:51:12.852Z,37.83
2023-05-20T01:53:39.566Z,31.00
2023-05-20T01:56:06.610Z,31.70
2023-05-20T01:58:33.532Z,27.57
2023-05-20T02:01:00.362Z,26.90
2023-05-20T02:03:27.221Z,28.70
2023-05-20T02:05:54.039Z,28.57
2023-05-20T02:08:20.887Z,27.70
2023-05-20T02:10:50.416Z,27.87
2023-05-20T02:13:17.217Z,27.10
2023-05-20T02:15:44.817Z,24.70
2023-05-20T02:18:12.683Z,31.17
2023-05-20T02:20:39.745Z,29.07
2023-05-20T02:23:06.638Z,32.53
2023-05-20T02:25:34.380Z,30.07
2023-05-20T02:28:01.572Z,28.20
2023-05-20T02:30:28.360Z,29.63
2023-05-20T02:32:55.132Z,29.40
2023-05-20T02:35:21.843Z,27.97
2023-05-20T02:37:48.704Z,24.97
2023-05-20T02:40:15.503Z,26.37
2023-05-20T02:42:42.360Z,26.00
2023-05-20T02:45:09.545Z,32.63
2023-05-20T02:47:36.310Z,28.90
2023-05-20T02:50:03.320Z,27.90
2023-05-20T02:52:30.043Z,26.17
2023-05-20T02:54:56.891Z,25.30
2023-05-20T02:57:23.711Z,26.13
2023-05-20T02:59:50.474Z,29.83
2023-05-20T03:02:17.400Z,23.93
2023-05-20T03:04:46.940Z,28.13
2023-05-20T03:07:14.735Z,29.37
2023-05-20T03:09:42.088Z,29.30
2023-05-20T03:12:08.783Z,26.77
2023-05-20T03:14:35.501Z,26.80
2023-05-20T03:17:02.351Z,26.57
2023-05-20T03:19:29.274Z,29.43
2023-05-20T03:21:56.041Z,27.07
2023-05-20T03:24:23.607Z,25.40
2023-05-20T03:26:50.444Z,28.70
2023-05-20T03:29:17.984Z,28.50
2023-05-20T03:31:45.151Z,27.00
2023-05-20T03:34:12.046Z,25.27
2023-05-20T03:36:39.008Z,29.37
2023-05-20T03:39:05.796Z,32.10
2023-05-20T03:41:33.204Z,25.57
2023-05-20T03:43:59.974Z,23.87
2023-05-20T03:46:26.713Z,26.87
2023-05-20T03:48:53.577Z,24.47
2023-05-20T03:51:20.325Z,25.80
2023-05-20T03:53:47.072Z,27.90
2023-05-20T03:56:13.957Z,24.30
2023-05-20T03:58:40.885Z,27.43
2023-05-20T04:01:07.713Z,25.33
2023-05-20T04:03:34.610Z,26.37
2023-05-20T04:06:01.436Z,31.83
2023-05-20T04:08:28.139Z,25.80
2023-05-20T04:10:58.238Z,27.03
2023-05-20T04:13:25.779Z,26.43
2023-05-20T04:15:53.146Z,27.77
2023-05-20T04:18:20.042Z,26.80
2023-05-20T04:20:47.332Z,25.40
2023-05-20T04:23:14.092Z,23.80
2023-05-20T04:25:42.194Z,23.53
2023-05-20T04:28:10.635Z,25.93
2023-05-20T04:30:37.512Z,27.53
2023-05-20T04:33:06.279Z,26.13
2023-05-20T04:35:35.230Z,28.97
2023-05-20T04:38:02.251Z,29.80
2023-05-20T04:40:29.067Z,30.73
2023-05-20T04:42:58.520Z,25.50
2023-05-20T04:45:26.561Z,25.80
2023-05-20T04:47:53.434Z,28.73
2023-05-20T04:50:21.323Z,25.20
2023-05-20T04:52:48.059Z,30.23
2023-05-20T04:55:16.126Z,27.37
2023-05-20T04:57:43.603Z,25.83
2023-05-20T05:00:12.286Z,27.93
2023-05-20T05:02:39.619Z,27.00
2023-05-20T05:05:07.077Z,37.23
2023-05-20T05:07:33.997Z,31.63
2023-05-20T05:10:01.245Z,32.80
2023-05-20T05:12:28.152Z,36.87
2023-05-20T05:14:54.934Z,23.70
2023-05-20T05:17:21.729Z,31.93
2023-05-20T05:19:48.585Z,30.03
2023-05-20T05:22:15.376Z,31.40
2023-05-20T05:24:42.148Z,24.90
2023-05-20T05:27:08.866Z,27.50
2023-05-20T05:29:35.658Z,27.53
2023-05-20T05:32:02.445Z,31.87
2023-05-20T05:34:29.255Z,30.07
2023-05-20T05:36:56.146Z,35.03
2023-05-20T05:39:22.956Z,30.10
2023-05-20T05:41:49.674Z,31.57
2023-05-20T05:44:16.496Z,30.70
2023-05-20T05:46:43.253Z,24.90
2023-05-20T05:49:10.052Z,26.27
2023-05-20T05:51:38.980Z,27.57
2023-05-20T05:54:06.057Z,30.40
2023-05-20T05:56:32.831Z,26.07
2023-05-20T05:58:59.691Z,31.27
2023-05-20T06:01:26.519Z,28.80
2023-05-20T06:03:53.773Z,28.33
2023-05-20T06:06:20.791Z,30.03
2023-05-20T06:08:47.747Z,30.07
2023-05-20T06:11:14.549Z,27.97
2023-05-20T06:13:41.358Z,24.37
2023-05-20T06:16:08.172Z,29.77
2023-05-20T06:18:34.973Z,28.90
2023-05-20T06:21:02.806Z,32.30
2023-05-20T06:23:29.573Z,27.47
2023-05-20T06:25:59.972Z,29.10
2023-05-20T06:28:27.544Z,31.97
2023-05-20T06:30:55.053Z,25.70
2023-05-20T06:33:26.067Z,24.50
2023-05-20T06:35:53.844Z,29.03
2023-05-20T06:38:20.816Z,36.17
2023-05-20T06:40:51.542Z,24.70
2023-05-20T06:43:18.586Z,35.37
2023-05-20T06:45:45.522Z,28.23
2023-05-20T06:48:12.406Z,35.47
2023-05-20T06:50:39.214Z,32.97
2023-05-20T06:53:06.042Z,33.60
2023-05-20T06:55:33.213Z,29.80
2023-05-20T06:58:00.195Z,30.67
2023-05-20T07:00:26.990Z,28.67
2023-05-20T07:02:53.787Z,27.50
2023-05-20T07:05:20.720Z,26.63
2023-05-20T07:07:47.507Z,27.07
2023-05-20T07:10:14.209Z,32.70
2023-05-20T07:12:40.953Z,29.47
2023-05-20T07:15:08.704Z,29.57
2023-05-20T07:17:35.814Z,28.07
2023-05-20T07:20:04.191Z,31.27
2023-05-20T07:22:31.200Z,28.20
2023-05-20T07:24:59.374Z,28.23
2023-05-20T07:27:26.090Z,27.13
2023-05-20T07:29:52.920Z,29.20
2023-05-20T07:32:19.679Z,26.20
2023-05-20T07:34:46.460Z,28.83
2023-05-20T07:37:13.261Z,29.67
2023-05-20T07:39:40.192Z,28.20
2023-05-20T07:42:07.030Z,33.30
2023-05-20T07:44:33.830Z,26.37
2023-05-20T07:47:01.015Z,28.33
2023-05-20T07:49:27.778Z,27.63
2023-05-20T07:51:54.645Z,28.10
2023-05-20T07:54:21.387Z,26.30
2023-05-20T07:56:48.139Z,25.37
2023-05-20T07:59:15.083Z,24.90
2023-05-20T08:01:42.711Z,24.00
2023-05-20T08:04:09.678Z,24.20
2023-05-20T08:06:36.859Z,28.43
2023-05-20T08:09:03.991Z,35.20
2023-05-20T08:11:30.824Z,29.50
2023-05-20T08:13:57.649Z,28.70
2023-05-20T08:16:24.589Z,25.27
2023-05-20T08:18:51.525Z,28.80
2023-05-20T08:21:18.274Z,26.20
2023-05-20T08:23:45.145Z,30.17
2023-05-20T08:26:12.038Z,24.67
2023-05-20T08:28:39.046Z,25.37
2023-05-20T08:31:05.962Z,24.63
2023-05-20T08:33:32.784Z,26.33
2023-05-20T08:35:59.512Z,24.53
2023-05-20T08:38:26.288Z,26.60
2023-05-20T08:40:55.382Z,27.10
2023-05-20T08:43:23.430Z,29.00
2023-05-20T08:45:52.517Z,26.53
2023-05-20T08:48:20.654Z,28.13
2023-05-20T08:50:51.272Z,25.13
2023-05-20T08:53:19.515Z,25.17
2023-05-20T08:56:00.789Z,23.10
2023-05-20T08:58:32.565Z,24.63
2023-05-20T09:00:59.396Z,27.00
2023-05-20T09:03:26.186Z,27.07
2023-05-20T09:05:53.856Z,23.13
2023-05-20T09:08:28.346Z,29.20
2023-05-20T09:10:55.194Z,28.13
2023-05-20T09:13:23.894Z,30.70
2023-05-20T09:15:51.062Z,25.57
2023-05-20T09:18:17.975Z,27.20
2023-05-20T09:20:47.262Z,26.77
2023-05-20T09:23:14.025Z,26.60
2023-05-20T09:25:40.974Z,30.60
2023-05-20T09:28:09.202Z,30.20
2023-05-20T09:30:36.132Z,28.50
2023-05-20T09:33:05.295Z,33.47
2023-05-20T09:35:37.054Z,34.83
2023-05-20T09:38:05.942Z,31.10
2023-05-20T09:40:33.692Z,31.93
2023-05-20T09:43:03.721Z,28.00
2023-05-20T09:45:31.088Z,31.80
2023-05-20T09:47:58.196Z,29.00
2023-05-20T09:50:26.091Z,31.37
2023-05-20T09:52:54.086Z,28.30
2023-05-20T09:55:22.592Z,34.73
2023-05-20T09:57:49.913Z,29.10
2023-05-20T10:00:17.689Z,32.17
2023-05-20T10:02:53.921Z,30.90
2023-05-20T10:05:24.538Z,29.43
2023-05-20T10:07:54.261Z,48.27
2023-05-20T10:10:35.896Z,33.40
2023-05-20T10:13:24.450Z,30.70
2023-05-20T10:15:54.221Z,31.67
2023-05-20T10:18:33.851Z,34.33
2023-05-20T10:21:01.245Z,31.73
2023-05-20T10:23:29.712Z,29.23
2023-05-20T10:25:57.509Z,31.13
2023-05-20T10:28:32.914Z,28.47
2023-05-20T10:31:00.899Z,29.00
2023-05-20T10:33:28.796Z,29.50
2023-05-20T10:35:59.628Z,34.97
2023-05-20T10:38:26.594Z,30.47
2023-05-20T10:40:53.653Z,29.30
2023-05-20T10:43:30.583Z,29.30
2023-05-20T10:45:58.551Z,32.40
2023-05-20T10:48:26.763Z,29.03
2023-05-20T10:50:59.727Z,31.20
2023-05-20T10:53:34.013Z,30.03
2023-05-20T10:56:01.523Z,27.70
2023-05-20T10:58:28.328Z,34.60
2023-05-20T11:00:56.280Z,30.90
2023-05-20T11:03:24.090Z,28.47
2023-05-20T11:05:51.676Z,33.67
2023-05-20T11:08:28.286Z,32.23
2023-05-20T11:10:57.391Z,38.10
2023-05-20T11:13:25.019Z,30.60
2023-05-20T11:15:51.929Z,28.83
2023-05-20T11:18:19.037Z,31.13
2023-05-20T11:20:47.367Z,34.27
2023-05-20T11:23:15.588Z,30.33
2023-05-20T11:25:42.496Z,37.17
2023-05-20T11:28:16.414Z,29.90
2023-05-20T11:30:43.797Z,33.90
2023-05-20T11:33:13.024Z,32.40
2023-05-20T11:35:54.347Z,33.97
2023-05-20T11:38:21.878Z,30.80
2023-05-20T11:40:56.279Z,30.20
2023-05-20T11:43:24.010Z,32.87
2023-05-20T11:45:56.087Z,31.23
2023-05-20T11:48:24.161Z,30.77
2023-05-20T11:50:52.858Z,33.07
2023-05-20T11:53:21.161Z,31.40
2023-05-20T11:55:58.569Z,34.67
2023-05-20T11:58:27.740Z,30.47
2023-05-20T12:01:01.788Z,37.00
2023-05-20T12:03:33.080Z,28.70
2023-05-20T12:06:02.833Z,36.50
2023-05-20T12:08:30.041Z,33.37
2023-05-20T12:10:56.995Z,29.70
2023-05-20T12:13:23.851Z,32.13
2023-05-20T12:15:50.727Z,32.87
2023-05-20T12:18:17.514Z,31.67
2023-05-20T12:20:44.235Z,32.33
2023-05-20T12:23:11.149Z,34.30
2023-05-20T12:25:37.871Z,36.10
2023-05-20T12:28:04.787Z,32.50
2023-05-20T12:30:31.643Z,31.60
2023-05-20T12:32:58.475Z,29.83
2023-05-20T12:35:36.657Z,35.50
2023-05-20T12:38:03.554Z,32.10
2023-05-20T12:40:30.328Z,31.70
2023-05-20T12:42:57.406Z,33.20
2023-05-20T12:45:24.144Z,31.37
2023-05-20T12:47:51.371Z,34.13
2023-05-20T12:50:18.308Z,35.03
2023-05-20T12:52:45.313Z,35.70
2023-05-20T12:55:15.579Z,30.13
2023-05-20T12:57:44.264Z,34.20
2023-05-20T13:00:11.914Z,34.67
2023-05-20T13:02:40.070Z,28.97
2023-05-20T13:05:07.448Z,28.70
2023-05-20T13:07:34.439Z,32.93
2023-05-20T13:10:01.511Z,36.00
2023-05-20T13:12:28.300Z,35.80
2023-05-20T13:14:55.095Z,30.70
2023-05-20T13:17:21.890Z,33.47
2023-05-20T13:19:48.839Z,32.27
2023-05-20T13:22:15.802Z,31.70
2023-05-20T13:24:42.568Z,30.83
2023-05-20T13:27:09.424Z,32.33
2023-05-20T13:29:36.177Z,30.57
2023-05-20T13:32:03.968Z,32.10
2023-05-20T13:34:31.590Z,28.43
2023-05-20T13:36:58.416Z,30.00
2023-05-20T13:39:25.330Z,32.40
2023-05-20T13:41:53.502Z,34.30
2023-05-20T13:44:20.768Z,34.50
2023-05-20T13:46:47.604Z,31.93
2023-05-20T13:49:14.492Z,31.23
2023-05-20T13:51:41.272Z,30.10
2023-05-20T13:54:08.003Z,32.27
2023-05-20T13:56:34.814Z,31.77
2023-05-20T13:59:01.581Z,29.00
2023-05-20T14:01:30.546Z,31.10
2023-05-20T14:03:57.403Z,33.83
2023-05-20T14:06:24.812Z,31.37
2023-05-20T14:08:54.505Z,30.50
2023-05-20T14:11:21.815Z,35.13
2023-05-20T14:13:48.625Z,37.30
2023-05-20T14:16:15.744Z,30.53
2023-05-20T14:18:42.632Z,42.40
2023-05-20T14:21:09.490Z,31.17
2023-05-20T14:23:36.218Z,35.83
2023-05-20T14:26:03.197Z,29.40
2023-05-20T14:28:29.975Z,37.57
2023-05-20T14:30:56.683Z,33.93
2023-05-20T14:33:23.435Z,33.20
2023-05-20T14:35:50.162Z,32.97
2023-05-20T14:38:18.128Z,34.43
2023-05-20T14:40:44.868Z,36.87
2023-05-20T14:43:11.722Z,30.40
2023-05-20T14:45:38.524Z,31.30
2023-05-20T14:48:06.849Z,34.10
2023-05-20T14:50:33.855Z,31.97
2023-05-20T14:53:00.693Z,30.10
2023-05-20T14:55:27.483Z,35.10
2023-05-20T14:57:54.326Z,31.03
2023-05-20T15:00:21.081Z,29.63
2023-05-20T15:02:48.028Z,32.87
2023-05-20T15:05:14.937Z,30.47
2023-05-20T15:07:41.750Z,28.00
2023-05-20T15:10:08.902Z,30.30
2023-05-20T15:12:35.693Z,36.60
2023-05-20T15:15:03.061Z,30.90
2023-05-20T15:17:29.835Z,37.00
2023-05-20T15:19:56.701Z,28.73
2023-05-20T15:22:23.459Z,29.67
2023-05-20T15:24:50.303Z,30.63
2023-05-20T15:27:17.152Z,32.83
2023-05-20T15:29:44.070Z,34.23
2023-05-20T15:32:11.205Z,28.90
2023-05-20T15:34:38.013Z,27.50
2023-05-20T15:37:04.986Z,27.53
2023-05-20T15:39:31.827Z,29.90
2023-05-20T15:42:02.861Z,36.80
2023-05-20T15:44:29.762Z,36.23
2023-05-20T15:46:56.681Z,31.67
2023-05-20T15:49:23.470Z,30.03
2023-05-20T15:52:02.376Z,29.57
2023-05-20T15:54:30.968Z,32.20
2023-05-20T15:56:58.112Z,28.60
2023-05-20T15:59:25.045Z,33.57
2023-05-20T16:01:51.834Z,39.90
2023-05-20T16:04:19.638Z,33.03
2023-05-20T16:06:47.155Z,34.40
2023-05-20T16:09:14.039Z,35.03
2023-05-20T16:11:41.043Z,35.73
2023-05-20T16:14:07.858Z,32.30
2023-05-20T16:16:36.162Z,31.80
2023-05-20T16:19:03.364Z,26.47
2023-05-20T16:21:31.271Z,32.87
2023-05-20T16:23:58.064Z,29.13
2023-05-20T16:26:25.058Z,28.60
2023-05-20T16:28:51.794Z,32.53
2023-05-20T16:31:18.726Z,28.10
2023-05-20T16:33:45.603Z,42.23
2023-05-20T16:36:12.409Z,29.67
2023-05-20T16:38:39.536Z,30.20
2023-05-20T16:41:06.628Z,31.03
2023-05-20T16:43:33.370Z,30.40
2023-05-20T16:46:00.694Z,26.70
2023-05-20T16:48:27.529Z,27.17
2023-05-20T16:50:54.251Z,28.80
2023-05-20T16:53:21.459Z,26.00
2023-05-20T16:55:48.184Z,32.33
2023-05-20T16:58:15.037Z,30.00
2023-05-20T17:00:41.783Z,29.90
2023-05-20T17:03:08.703Z,30.67
2023-05-20T17:05:35.587Z,30.33
2023-05-20T17:08:02.307Z,31.10
2023-05-20T17:10:29.594Z,36.97
2023-05-20T17:12:56.542Z,41.53
2023-05-20T17:15:23.638Z,48.60
2023-05-20T17:17:50.770Z,29.47
2023-05-20T17:20:17.743Z,27.03
2023-05-20T17:22:44.655Z,33.10
2023-05-20T17:25:11.538Z,29.77
2023-05-20T17:27:38.335Z,29.37
2023-05-20T17:30:05.702Z,30.10
2023-05-20T17:32:32.592Z,30.53
2023-05-20T17:34:59.344Z,31.10
2023-05-20T17:37:26.111Z,31.73
2023-05-20T17:39:52.931Z,31.40
2023-05-20T17:42:19.698Z,36.10
2023-05-20T17:44:46.547Z,29.53
2023-05-20T17:47:13.429Z,29.27
2023-05-20T17:49:40.507Z,28.93
2023-05-20T17:52:07.599Z,33.03
2023-05-20T17:54:34.362Z,31.73
2023-05-20T17:57:01.103Z,30.10
2023-05-20T17:59:27.842Z,32.33
2023-05-20T18:01:54.737Z,36.00
2023-05-20T18:04:21.895Z,30.00
2023-05-20T18:06:48.640Z,32.30
2023-05-20T18:09:15.462Z,33.20
2023-05-20T18:11:42.313Z,30.93
2023-05-20T18:14:09.850Z,31.70
2023-05-20T18:16:36.757Z,28.60
2023-05-20T18:19:03.682Z,30.67
2023-05-20T18:21:30.463Z,30.97
2023-05-20T18:23:57.307Z,33.30
2023-05-20T18:26:24.061Z,28.60
2023-05-20T18:28:50.986Z,34.60
2023-05-20T18:31:17.796Z,32.03
2023-05-20T18:33:44.583Z,29.40
2023-05-20T18:36:11.530Z,27.93
2023-05-20T18:38:40.637Z,34.97
2023-05-20T18:41:08.525Z,30.17
2023-05-20T18:43:35.642Z,29.90
2023-05-20T18:46:02.444Z,37.13
2023-05-20T18:48:29.411Z,29.57
2023-05-20T18:50:56.655Z,29.37
2023-05-20T18:53:23.685Z,39.60
2023-05-20T18:55:51.095Z,34.20
2023-05-20T18:58:17.856Z,34.60
2023-05-20T19:00:44.644Z,36.60
2023-05-20T19:03:11.604Z,42.27
2023-05-20T19:05:39.017Z,33.67
2023-05-20T19:08:06.428Z,33.87
2023-05-20T19:10:33.627Z,38.27
2023-05-20T19:13:00.481Z,31.07
2023-05-20T19:15:27.335Z,27.83
2023-05-20T19:17:54.359Z,28.37
2023-05-20T19:20:21.299Z,27.87
2023-05-20T19:22:48.068Z,30.63
2023-05-20T19:25:14.957Z,29.53
2023-05-20T19:27:41.687Z,29.83
2023-05-20T19:30:10.937Z,26.93
2023-05-20T19:32:38.817Z,27.37
2023-05-20T19:35:06.348Z,28.20
2023-05-20T19:37:33.636Z,28.60
2023-05-20T19:40:01.178Z,30.47
2023-05-20T19:42:28.084Z,28.57
2023-05-20T19:44:54.981Z,27.43
2023-05-20T19:47:22.092Z,33.70
2023-05-20T19:49:48.984Z,29.77
2023-05-20T19:52:15.824Z,35.10
2023-05-20T19:54:42.785Z,29.67
2023-05-20T19:57:10.018Z,28.10
2023-05-20T19:59:37.958Z,28.67
2023-05-20T20:02:06.104Z,28.40
2023-05-20T20:04:33.293Z,32.07
2023-05-20T20:07:00.787Z,36.53
2023-05-20T20:09:27.743Z,28.50
2023-05-20T20:11:54.738Z,27.77
2023-05-20T20:14:21.696Z,29.37
2023-05-20T20:16:49.492Z,29.13
2023-05-20T20:19:18.774Z,32.20
2023-05-20T20:21:46.338Z,36.50
2023-05-20T20:24:13.200Z,30.87
2023-05-20T20:26:40.585Z,26.70
2023-05-20T20:29:08.164Z,33.27
2023-05-20T20:31:34.972Z,30.07
2023-05-20T20:34:01.790Z,28.23
2023-05-20T20:36:31.968Z,33.43
2023-05-20T20:38:59.548Z,29.00
2023-05-20T20:41:26.314Z,36.03
2023-05-20T20:43:53.186Z,30.77
2023-05-20T20:46:20.413Z,31.10
2023-05-20T20:48:47.288Z,28.10
2023-05-20T20:51:15.298Z,31.10
2023-05-20T20:53:42.626Z,30.60
2023-05-20T20:56:10.051Z,33.33
2023-05-20T20:58:37.793Z,32.17
2023-05-20T21:01:05.710Z,27.57
2023-05-20T21:03:40.278Z,34.97
2023-05-20T21:06:08.050Z,33.00
2023-05-20T21:08:35.490Z,31.43
2023-05-20T21:11:02.289Z,41.30
2023-05-20T21:13:30.759Z,35.17
2023-05-20T21:15:57.522Z,31.27
2023-05-20T21:18:24.523Z,31.30
2023-05-20T21:20:53.071Z,28.57
2023-05-20T21:23:20.874Z,34.57
2023-05-20T21:25:48.247Z,33.40
2023-05-20T21:28:15.908Z,33.27
2023-05-20T21:30:42.775Z,33.87
2023-05-20T21:33:09.735Z,33.50
2023-05-20T21:35:36.893Z,31.90
2023-05-20T21:38:03.841Z,35.37
2023-05-20T21:40:30.583Z,34.20
2023-05-20T21:42:57.305Z,36.80
2023-05-20T21:45:24.045Z,33.83
2023-05-20T21:47:50.994Z,32.27
2023-05-20T21:50:17.853Z,31.17
2023-05-20T21:52:44.619Z,33.30
2023-05-20T21:55:11.521Z,31.20
2023-05-20T21:57:38.342Z,41.47
2023-05-20T22:00:11.060Z,36.13
2023-05-20T22:02:38.133Z,32.13
2023-05-20T22:05:05.431Z,33.60
2023-05-20T22:07:33.141Z,33.70
2023-05-20T22:10:00.651Z,35.13
2023-05-20T22:12:27.683Z,38.27
2023-05-20T22:14:54.677Z,41.67
2023-05-20T22:17:21.837Z,35.63
2023-05-20T22:19:49.796Z,33.87
2023-05-20T22:22:16.680Z,35.60
2023-05-20T22:24:43.475Z,34.20
2023-05-20T22:27:10.295Z,39.13
2023-05-20T22:29:37.180Z,38.07
2023-05-20T22:32:04.234Z,36.90
2023-05-20T22:34:31.166Z,44.73
2023-05-20T22:36:58.147Z,37.50
2023-05-20T22:39:24.998Z,38.37
2023-05-20T22:41:51.804Z,34.33
2023-05-20T22:44:18.494Z,39.73
2023-05-20T22:46:45.306Z,36.50
2023-05-20T22:49:12.883Z,36.20
2023-05-20T22:51:39.716Z,37.43
2023-05-20T22:54:07.080Z,39.10
2023-05-20T22:56:34.255Z,39.13
2023-05-20T22:59:01.234Z,39.27
2023-05-20T23:01:28.079Z,43.37
2023-05-20T23:03:55.153Z,41.93
2023-05-20T23:06:22.524Z,42.63
2023-05-20T23:08:49.645Z,37.30
2023-05-20T23:11:16.638Z,37.37
2023-05-20T23:13:43.360Z,44.23
2023-05-20T23:16:10.453Z,45.30
2023-05-20T23:18:37.261Z,43.57
2023-05-20T23:21:04.305Z,41.60
2023-05-20T23:23:32.204Z,42.93
2023-05-20T23:25:59.799Z,39.83
2023-05-20T23:28:26.755Z,40.50
2023-05-20T23:30:54.455Z,43.57
2023-05-20T23:33:25.031Z,42.07
2023-05-20T23:35:52.916Z,42.37
2023-05-20T23:38:19.688Z,40.50
2023-05-20T23:40:46.470Z,42.83
2023-05-20T23:43:13.301Z,38.70
2023-05-20T23:45:40.066Z,50.80
2023-05-20T23:48:09.889Z,46.70
2023-05-20T23:50:36.676Z,43.00
2023-05-20T23:53:03.674Z,40.80
2023-05-20T23:55:31.798Z,43.90
2023-05-20T23:57:58.613Z,43.30
